createdAt,value
2023-05-21T00:01:50.375Z,1.77
2023-05-21T00:04:18.920Z,2.13
2023-05-21T00:06:47.696Z,2.40
2023-05-21T00:09:16.252Z,2.40
2023-05-21T00:11:45.004Z,2.47
2023-05-21T00:14:13.666Z,2.13
2023-05-21T00:16:42.477Z,2.38
2023-05-21T00:19:12.819Z,2.42
2023-05-21T00:21:41.461Z,2.10
2023-05-21T00:24:09.996Z,2.25
2023-05-21T00:26:38.638Z,2.15
2023-05-21T00:29:08.145Z,2.50
2023-05-21T00:31:38.589Z,3.10
2023-05-21T00:34:07.585Z,2.53
2023-05-21T00:36:38.113Z,2.85
2023-05-21T00:39:06.877Z,2.03
2023-05-21T00:41:35.966Z,1.95
2023-05-21T00:44:04.468Z,2.30
2023-05-21T00:46:33.642Z,2.40
2023-05-21T00:49:02.425Z,2.53
2023-05-21T00:51:31.369Z,2.50
2023-05-21T00:54:01.700Z,2.03
2023-05-21T00:56:30.385Z,2.80
2023-05-21T00:58:59.473Z,2.55
2023-05-21T01:01:34.111Z,2.58
2023-05-21T01:04:03.061Z,2.85
2023-05-21T01:06:34.909Z,2.13
2023-05-21T01:09:07.018Z,2.33
2023-05-21T01:11:40.083Z,2.25
2023-05-21T01:14:09.592Z,1.95
2023-05-21T01:16:39.486Z,2.50
2023-05-21T01:19:10.481Z,2.20
2023-05-21T01:21:43.750Z,2.55
2023-05-21T01:24:13.914Z,2.35
2023-05-21T01:26:44.245Z,2.53
2023-05-21T01:29:14.302Z,2.40
2023-05-21T01:31:50.196Z,2.42
2023-05-21T01:34:22.239Z,2.35
2023-05-21T01:36:56.688Z,2.40
2023-05-21T01:39:31.416Z,2.53
2023-05-21T01:42:02.254Z,2.35
2023-05-21T01:44:31.796Z,3.03
2023-05-21T01:47:00.936Z,2.30
2023-05-21T01:49:30.003Z,2.63
2023-05-21T01:51:58.709Z,2.47
2023-05-21T01:54:29.106Z,2.55
2023-05-21T01:56:58.442Z,1.90
2023-05-21T01:59:27.927Z,2.58
2023-05-21T02:01:56.597Z,2.08
2023-05-21T02:04:25.490Z,2.65
2023-05-21T02:06:55.099Z,2.22
2023-05-21T02:09:23.835Z,2.42
2023-05-21T02:11:53.798Z,2.45
2023-05-21T02:14:22.637Z,2.83
2023-05-21T02:16:52.561Z,2.35
2023-05-21T02:19:21.153Z,2.00
2023-05-21T02:21:49.749Z,2.30
2023-05-21T02:24:18.492Z,2.95
2023-05-21T02:26:48.689Z,2.17
2023-05-21T02:29:19.222Z,2.92
2023-05-21T02:31:48.314Z,2.00
2023-05-21T02:34:17.859Z,2.65
2023-05-21T02:36:48.508Z,2.25
2023-05-21T02:39:17.562Z,3.00
2023-05-21T02:41:47.035Z,2.45
2023-05-21T02:44:19.015Z,2.65
2023-05-21T02:46:49.621Z,2.72
2023-05-21T02:49:19.590Z,2.35
2023-05-21T02:51:50.224Z,2.75
2023-05-21T02:54:19.192Z,2.65
2023-05-21T02:56:48.276Z,2.25
2023-05-21T02:59:17.068Z,2.20
2023-05-21T03:01:46.666Z,2.50
2023-05-21T03:04:17.318Z,2.85
2023-05-21T03:06:47.450Z,2.95
2023-05-21T03:09:16.934Z,2.50
2023-05-21T03:11:45.915Z,2.63
2023-05-21T03:14:14.804Z,2.75
2023-05-21T03:16:44.048Z,2.28
2023-05-21T03:19:14.262Z,3.00
2023-05-21T03:21:44.731Z,2.30
2023-05-21T03:24:13.745Z,3.10
2023-05-21T03:26:42.481Z,2.47
2023-05-21T03:29:11.118Z,2.47
2023-05-21T03:31:41.477Z,2.80
2023-05-21T03:34:12.980Z,3.13
2023-05-21T03:36:42.444Z,2.20
2023-05-21T03:39:13.020Z,2.60
2023-05-21T03:41:42.107Z,2.47
2023-05-21T03:44:27.206Z,3.13
2023-05-21T03:47:01.669Z,2.70
2023-05-21T03:49:33.477Z,2.35
2023-05-21T03:52:02.362Z,2.60
2023-05-21T03:54:33.327Z,3.13
2023-05-21T03:57:06.476Z,2.13
2023-05-21T03:59:35.756Z,2.22
2023-05-21T04:02:04.933Z,2.85
2023-05-21T04:04:34.101Z,2.42
2023-05-21T04:07:05.006Z,2.60
2023-05-21T04:09:36.767Z,2.38
2023-05-21T04:12:06.480Z,2.17
2023-05-21T04:14:35.720Z,2.42
2023-05-21T04:17:05.780Z,2.40
2023-05-21T04:19:35.403Z,2.78
2023-05-21T04:22:06.202Z,2.25
2023-05-21T04:24:38.327Z,3.30
2023-05-21T04:27:17.760Z,3.08
2023-05-21T04:29:50.611Z,3.22
2023-05-21T04:32:20.432Z,2.88
2023-05-21T04:34:49.223Z,2.50
2023-05-21T04:37:18.960Z,2.67
2023-05-21T04:39:48.891Z,3.83
2023-05-21T04:42:19.542Z,2.88
2023-05-21T04:44:48.925Z,2.25
2023-05-21T04:47:18.400Z,4.10
2023-05-21T04:49:47.736Z,3.22
2023-05-21T04:52:16.938Z,2.20
2023-05-21T04:54:45.877Z,2.63
2023-05-21T04:57:15.749Z,2.47
2023-05-21T04:59:45.059Z,2.85
2023-05-21T05:02:16.691Z,2.78
2023-05-21T05:04:45.406Z,3.22
2023-05-21T05:07:15.104Z,2.78
2023-05-21T05:09:44.800Z,2.85
2023-05-21T05:12:13.642Z,2.65
2023-05-21T05:14:44.020Z,3.33
2023-05-21T05:17:15.909Z,2.78
2023-05-21T05:19:45.769Z,2.33
2023-05-21T05:22:15.110Z,3.10
2023-05-21T05:24:44.823Z,2.60
2023-05-21T05:27:14.244Z,2.45
2023-05-21T05:29:45.481Z,2.67
2023-05-21T05:32:14.570Z,2.88
2023-05-21T05:34:46.185Z,2.63
2023-05-21T05:37:15.264Z,2.65
2023-05-21T05:39:44.028Z,2.92
2023-05-21T05:42:13.331Z,2.20
2023-05-21T05:44:42.657Z,2.55
2023-05-21T05:47:13.441Z,2.70
2023-05-21T05:49:42.407Z,2.72
2023-05-21T05:52:11.356Z,2.33
2023-05-21T05:54:40.281Z,2.83
2023-05-21T05:57:09.104Z,2.33
2023-05-21T05:59:40.409Z,3.10
2023-05-21T06:02:09.427Z,2.53
2023-05-21T06:04:40.013Z,3.08
2023-05-21T06:07:08.826Z,2.75
2023-05-21T06:09:38.966Z,2.78
2023-05-21T06:12:12.317Z,2.90
2023-05-21T06:14:46.148Z,3.47
2023-05-21T06:17:15.539Z,2.47
2023-05-21T06:19:45.996Z,3.00
2023-05-21T06:22:14.988Z,2.67
2023-05-21T06:24:43.745Z,2.80
2023-05-21T06:27:12.654Z,2.60
2023-05-21T06:29:41.773Z,2.75
2023-05-21T06:32:10.485Z,2.85
2023-05-21T06:34:39.038Z,2.35
2023-05-21T06:37:08.956Z,2.67
2023-05-21T06:39:37.515Z,2.70
2023-05-21T06:42:07.330Z,3.85
2023-05-21T06:44:56.035Z,2.85
2023-05-21T06:47:31.276Z,3.28
2023-05-21T06:50:00.620Z,3.47
2023-05-21T06:52:31.893Z,3.42
2023-05-21T06:55:03.010Z,3.72
2023-05-21T06:57:47.493Z,2.90
2023-05-21T07:00:16.380Z,3.40
2023-05-21T07:02:45.653Z,3.17
2023-05-21T07:05:14.311Z,3.65
2023-05-21T07:07:44.877Z,2.78
2023-05-21T07:10:13.443Z,2.90
2023-05-21T07:12:42.137Z,2.45
2023-05-21T07:15:12.404Z,3.05
2023-05-21T07:17:41.543Z,2.83
2023-05-21T07:20:11.812Z,2.75
2023-05-21T07:22:45.173Z,3.22
2023-05-21T07:25:15.654Z,2.70
2023-05-21T07:27:44.770Z,3.55
2023-05-21T07:30:13.722Z,2.80
2023-05-21T07:32:42.664Z,3.88
2023-05-21T07:35:11.366Z,2.90
2023-05-21T07:37:40.060Z,3.33
2023-05-21T07:40:11.595Z,2.83
2023-05-21T07:42:40.392Z,3.28
2023-05-21T07:45:09.957Z,2.90
2023-05-21T07:47:43.219Z,3.40
2023-05-21T07:50:13.556Z,2.72
2023-05-21T07:52:42.470Z,2.53
2023-05-21T07:55:12.654Z,2.75
2023-05-21T07:57:42.641Z,3.28
2023-05-21T08:00:15.761Z,2.95
2023-05-21T08:02:44.261Z,3.83
2023-05-21T08:05:16.469Z,2.22
2023-05-21T08:07:46.345Z,2.78
2023-05-21T08:10:19.215Z,3.33
2023-05-21T08:12:49.634Z,2.92
2023-05-21T08:15:18.836Z,2.97
2023-05-21T08:17:48.033Z,2.78
2023-05-21T08:20:18.053Z,3.50
2023-05-21T08:22:48.528Z,2.60
2023-05-21T08:25:20.167Z,2.88
2023-05-21T08:27:50.945Z,2.67
2023-05-21T08:30:21.486Z,3.20
2023-05-21T08:32:51.385Z,2.78
2023-05-21T08:35:21.808Z,2.75
2023-05-21T08:38:13.280Z,2.63
2023-05-21T08:41:08.723Z,2.65
2023-05-21T08:43:38.654Z,3.33
2023-05-21T08:46:07.880Z,2.85
2023-05-21T08:48:39.203Z,3.50
2023-05-21T08:51:07.792Z,2.92
2023-05-21T08:53:46.007Z,2.88
2023-05-21T08:56:18.725Z,2.72
2023-05-21T08:58:50.936Z,2.95
2023-05-21T09:01:24.772Z,3.90
2023-05-21T09:04:16.319Z,2.80
2023-05-21T09:06:49.346Z,2.92
2023-05-21T09:09:35.548Z,3.40
2023-05-21T09:12:07.840Z,2.40
2023-05-21T09:14:36.949Z,3.08
2023-05-21T09:17:15.112Z,2.55
2023-05-21T09:20:12.305Z,2.17
2023-05-21T09:22:46.348Z,2.63
2023-05-21T09:25:17.471Z,2.65
2023-05-21T09:27:47.851Z,2.50
2023-05-21T09:30:20.875Z,2.30
2023-05-21T09:32:55.126Z,2.60
2023-05-21T09:35:24.254Z,2.63
2023-05-21T09:37:54.416Z,2.90
2023-05-21T09:40:24.692Z,3.60
2023-05-21T09:42:55.886Z,2.95
2023-05-21T09:45:25.883Z,2.70
2023-05-21T09:47:57.573Z,2.35
2023-05-21T09:50:28.776Z,2.97
2023-05-21T09:52:58.287Z,2.42
2023-05-21T09:55:27.734Z,3.78
2023-05-21T09:57:59.355Z,3.10
2023-05-21T10:00:29.702Z,2.90
2023-05-21T10:02:59.508Z,3.72
2023-05-21T10:05:30.666Z,3.42
2023-05-21T10:08:02.218Z,2.40
2023-05-21T10:10:31.973Z,2.95
2023-05-21T10:13:04.290Z,3.10
2023-05-21T10:15:36.384Z,3.30
2023-05-21T10:18:06.383Z,3.30
2023-05-21T10:20:36.569Z,2.67
2023-05-21T10:23:06.366Z,3.55
2023-05-21T10:25:35.370Z,2.80
2023-05-21T10:28:07.025Z,2.80
2023-05-21T10:30:37.952Z,3.33
2023-05-21T10:33:07.185Z,3.40
2023-05-21T10:35:36.489Z,3.08
2023-05-21T10:38:06.278Z,3.33
2023-05-21T10:40:37.830Z,3.65
2023-05-21T10:43:33.009Z,3.00
2023-05-21T10:46:15.752Z,4.25
2023-05-21T10:48:57.785Z,2.85
2023-05-21T10:51:29.095Z,3.53
2023-05-21T10:54:24.384Z,3.28
2023-05-21T10:56:58.845Z,7.50
2023-05-21T11:02:01.882Z,8.45
2023-05-21T11:04:31.054Z,9.38
2023-05-21T11:07:00.221Z,9.25
2023-05-21T11:09:28.846Z,6.97
2023-05-21T11:11:59.159Z,8.23
2023-05-21T11:14:31.754Z,7.93
2023-05-21T11:17:02.714Z,9.07
2023-05-21T11:19:38.022Z,8.13
2023-05-21T11:22:09.404Z,8.77
2023-05-21T11:24:42.476Z,8.45
2023-05-21T11:27:12.570Z,8.40
2023-05-21T11:29:42.846Z,8.50
2023-05-21T11:32:15.719Z,8.38
2023-05-21T11:34:46.259Z,7.50
2023-05-21T11:37:32.078Z,7.88
2023-05-21T11:40:19.516Z,8.18
2023-05-21T11:42:51.780Z,7.75
2023-05-21T11:45:21.368Z,8.70
2023-05-21T11:47:52.137Z,8.50
2023-05-21T11:50:21.378Z,8.18
2023-05-21T11:52:50.440Z,7.30
2023-05-21T11:55:22.923Z,7.70
2023-05-21T11:57:54.407Z,8.20
2023-05-21T12:00:24.520Z,8.18
2023-05-21T12:02:59.062Z,9.65
2023-05-21T12:05:28.225Z,8.23
2023-05-21T12:07:58.536Z,8.88
2023-05-21T12:10:27.109Z,11.18
2023-05-21T12:12:57.246Z,10.05
2023-05-21T12:15:28.086Z,7.95
2023-05-21T12:17:58.530Z,10.52
2023-05-21T12:20:28.758Z,9.35
2023-05-21T12:22:59.272Z,9.48
2023-05-21T12:25:28.335Z,9.65
2023-05-21T12:27:59.039Z,8.85
2023-05-21T12:30:27.953Z,9.07
2023-05-21T12:33:02.515Z,8.18
2023-05-21T12:35:31.863Z,9.52
2023-05-21T12:38:02.296Z,8.82
2023-05-21T12:40:37.760Z,8.88
2023-05-21T12:43:07.240Z,10.13
2023-05-21T12:45:36.754Z,10.65
2023-05-21T12:48:07.216Z,9.57
2023-05-21T12:50:36.483Z,9.82
2023-05-21T12:53:05.228Z,9.90
2023-05-21T12:55:34.040Z,9.98
2023-05-21T12:58:04.509Z,10.10
2023-05-21T13:00:34.068Z,9.93
2023-05-21T13:03:04.912Z,10.27
2023-05-21T13:05:35.074Z,10.60
2023-05-21T13:08:03.644Z,9.68
2023-05-21T13:10:32.514Z,9.45
2023-05-21T13:13:01.894Z,9.98
2023-05-21T13:15:30.920Z,9.57
2023-05-21T13:18:01.585Z,10.63
2023-05-21T13:20:31.035Z,8.60
2023-05-21T13:23:03.941Z,9.73
2023-05-21T13:25:34.513Z,9.98
2023-05-21T13:41:37.544Z,10.77
2023-05-21T13:44:06.485Z,10.30
2023-05-21T14:06:48.803Z,11.25
2023-05-21T14:10:36.803Z,10.13
2023-05-21T14:13:18.440Z,12.15
2023-05-21T14:15:48.505Z,11.25
2023-05-21T14:18:17.043Z,12.00
2023-05-21T14:20:45.589Z,10.23
2023-05-21T14:23:14.099Z,12.07
2023-05-21T14:25:43.982Z,10.98
2023-05-21T14:28:12.473Z,10.55
2023-05-21T14:30:40.989Z,10.52
2023-05-21T14:33:09.543Z,10.15
2023-05-21T14:35:38.325Z,10.85
2023-05-21T14:38:07.062Z,11.48
2023-05-21T14:40:35.582Z,10.15
2023-05-21T14:43:06.015Z,11.57
2023-05-21T14:45:35.566Z,11.90
2023-05-21T14:48:08.568Z,11.50
2023-05-21T14:50:37.221Z,11.65
2023-05-21T14:56:21.753Z,12.43
2023-05-21T14:58:50.844Z,10.63
2023-05-21T15:01:19.610Z,13.15
2023-05-21T15:03:48.209Z,12.70
2023-05-21T15:06:16.811Z,11.90
2023-05-21T15:08:45.458Z,12.85
2023-05-21T15:11:13.992Z,11.13
2023-05-21T15:13:43.864Z,9.98
2023-05-21T15:16:12.357Z,10.07
2023-05-21T15:18:40.937Z,9.45
2023-05-21T15:21:09.503Z,9.30
2023-05-21T15:23:38.009Z,10.32
2023-05-21T15:26:06.535Z,9.55
2023-05-21T15:28:35.081Z,9.00
2023-05-21T15:31:04.989Z,10.43
2023-05-21T15:33:33.774Z,8.77
2023-05-21T15:36:02.433Z,8.15
2023-05-21T15:38:31.162Z,9.18
2023-05-21T15:40:59.692Z,8.50
2023-05-21T15:43:28.385Z,8.68
2023-05-21T15:45:57.097Z,8.57
2023-05-21T15:48:26.999Z,6.75
2023-05-21T15:50:55.546Z,6.63
2023-05-21T15:53:24.116Z,6.70
2023-05-21T15:55:52.687Z,7.78
2023-05-21T15:58:21.485Z,9.68
2023-05-21T16:00:50.302Z,11.90
2023-05-21T16:03:19.106Z,10.90
2023-05-21T16:05:49.446Z,11.70
2023-05-21T16:08:18.455Z,12.90
2023-05-21T16:10:47.036Z,10.77
2023-05-21T16:13:15.856Z,13.63
2023-05-21T16:15:44.819Z,12.35
2023-05-21T16:18:13.364Z,12.18
2023-05-21T16:20:42.208Z,12.30
2023-05-21T16:23:12.925Z,11.25
2023-05-21T16:25:41.813Z,10.13
2023-05-21T16:28:12.192Z,10.27
2023-05-21T16:30:41.111Z,11.50
2023-05-21T16:33:10.401Z,10.32
2023-05-21T16:35:39.340Z,12.23
2023-05-21T16:38:07.891Z,10.82
2023-05-21T16:40:40.368Z,10.55
2023-05-21T16:43:09.445Z,9.40
2023-05-21T16:45:41.571Z,10.05
2023-05-21T16:48:11.037Z,10.45
2023-05-21T16:50:40.345Z,8.77
2023-05-21T16:53:09.935Z,10.18
2023-05-21T16:55:40.378Z,9.80
2023-05-21T16:58:10.598Z,10.05
2023-05-21T17:00:39.182Z,10.10
2023-05-21T17:03:08.114Z,10.20
2023-05-21T17:05:37.146Z,9.38
2023-05-21T17:08:06.351Z,10.25
2023-05-21T17:10:35.017Z,9.10
2023-05-21T17:13:17.620Z,9.75
2023-05-21T17:15:50.809Z,8.35
2023-05-21T17:18:19.883Z,9.73
2023-05-21T17:20:48.600Z,9.50
2023-05-21T17:23:17.491Z,8.80
2023-05-21T17:25:46.444Z,9.45
2023-05-21T17:28:16.393Z,8.68
2023-05-21T17:30:46.042Z,9.57
2023-05-21T17:33:16.467Z,7.82
2023-05-21T17:35:45.053Z,7.72
2023-05-21T17:38:14.319Z,8.63
2023-05-21T17:40:43.201Z,8.20
2023-05-21T17:43:12.132Z,8.48
2023-05-21T17:45:42.490Z,10.68
2023-05-21T17:48:12.193Z,8.52
2023-05-21T17:50:41.247Z,9.27
2023-05-21T17:53:09.843Z,9.27
2023-05-21T17:55:38.551Z,8.82
2023-05-21T17:58:07.520Z,8.23
2023-05-21T18:00:36.439Z,10.57
2023-05-21T18:03:06.925Z,8.55
2023-05-21T18:05:36.376Z,8.85
2023-05-21T18:08:07.064Z,9.10
2023-05-21T18:10:37.430Z,8.15
2023-05-21T18:13:06.346Z,10.25
2023-05-21T18:15:35.090Z,9.00
2023-05-21T18:18:04.174Z,8.63
2023-05-21T18:20:34.556Z,8.90
2023-05-21T18:23:03.700Z,8.95
2023-05-21T18:25:32.201Z,9.00
2023-05-21T18:28:01.185Z,7.53
2023-05-21T18:30:29.718Z,8.45
2023-05-21T18:32:58.287Z,7.72
2023-05-21T18:35:27.322Z,7.65
2023-05-21T18:37:57.187Z,8.80
2023-05-21T18:40:30.492Z,8.52
2023-05-21T18:43:00.612Z,8.47
2023-05-21T18:45:29.701Z,8.30
2023-05-21T18:47:58.268Z,8.75
2023-05-21T18:50:26.818Z,8.70
2023-05-21T18:52:56.165Z,7.72
2023-05-21T18:55:26.568Z,7.28
2023-05-21T18:57:55.712Z,7.82
2023-05-21T19:00:24.541Z,8.07
2023-05-21T19:02:53.371Z,12.23
2023-05-21T19:05:22.137Z,9.90
2023-05-21T19:07:51.220Z,9.93
2023-05-21T19:10:19.866Z,10.20
2023-05-21T19:12:49.784Z,9.55
2023-05-21T19:15:18.324Z,10.48
2023-05-21T19:17:47.032Z,10.25
2023-05-21T19:20:24.063Z,10.38
2023-05-21T19:22:53.296Z,9.68
2023-05-21T19:25:22.134Z,8.90
2023-05-21T19:27:53.112Z,11.45
2023-05-21T19:30:22.356Z,9.68
2023-05-21T19:32:51.081Z,9.35
2023-05-21T19:35:19.806Z,10.73
2023-05-21T19:37:48.494Z,9.88
2023-05-21T19:40:17.946Z,11.18
2023-05-21T19:42:46.635Z,9.77
2023-05-21T19:45:16.653Z,8.63
2023-05-21T19:47:45.273Z,10.05
2023-05-21T19:50:14.161Z,9.98
2023-05-21T19:52:42.842Z,10.23
2023-05-21T19:55:11.874Z,9.27
2023-05-21T19:57:41.068Z,9.55
2023-05-21T20:00:11.676Z,8.40
2023-05-21T20:02:44.893Z,10.02
2023-05-21T20:05:14.596Z,9.30
2023-05-21T20:07:44.375Z,10.27
2023-05-21T20:10:13.895Z,9.25
2023-05-21T20:12:42.640Z,7.82
2023-05-21T20:15:13.236Z,7.32
2023-05-21T20:17:44.225Z,9.50
2023-05-21T20:20:16.848Z,8.68
2023-05-21T20:22:45.938Z,9.40
2023-05-21T20:25:14.979Z,8.60
2023-05-21T20:27:44.198Z,9.05
2023-05-21T20:30:13.502Z,7.65
2023-05-21T20:32:42.671Z,8.07
2023-05-21T20:35:11.314Z,7.90
2023-05-21T20:37:41.847Z,8.90
2023-05-21T20:40:13.399Z,8.32
2023-05-21T20:42:45.229Z,8.95
2023-05-21T20:45:15.868Z,8.95
2023-05-21T20:47:44.929Z,9.18
2023-05-21T20:50:14.145Z,9.32
2023-05-21T20:52:46.894Z,9.25
2023-05-21T20:55:15.920Z,8.27
2023-05-21T20:57:44.982Z,7.72
2023-05-21T21:00:16.219Z,7.53
2023-05-21T21:02:45.370Z,8.93
2023-05-21T21:05:14.262Z,9.13
2023-05-21T21:07:46.030Z,7.45
2023-05-21T21:10:14.962Z,8.38
2023-05-21T21:12:43.706Z,8.18
2023-05-21T21:15:14.267Z,8.60
2023-05-21T21:17:43.150Z,7.85
2023-05-21T21:20:14.321Z,7.38
2023-05-21T21:22:44.800Z,10.02
2023-05-21T21:25:14.956Z,9.10
2023-05-21T21:27:43.779Z,8.52
2023-05-21T21:30:13.071Z,8.38
2023-05-21T21:32:42.098Z,7.65
2023-05-21T21:35:11.362Z,8.15
2023-05-21T21:37:39.878Z,8.10
2023-05-21T21:40:11.274Z,7.57
2023-05-21T21:42:39.839Z,7.78
2023-05-21T21:45:10.336Z,7.82
2023-05-21T21:47:39.025Z,7.88
2023-05-21T21:50:09.267Z,6.70
2023-05-21T21:52:39.974Z,8.95
2023-05-21T21:55:11.762Z,7.82
2023-05-21T21:57:40.894Z,8.43
2023-05-21T22:00:15.883Z,7.10
2023-05-21T22:02:46.623Z,7.57
2023-05-21T22:05:15.888Z,8.27
2023-05-21T22:07:46.596Z,8.20
2023-05-21T22:10:18.184Z,8.20
2023-05-21T22:12:47.123Z,8.05
2023-05-21T22:15:20.773Z,8.73
2023-05-21T22:17:50.226Z,7.63
2023-05-21T22:20:19.574Z,10.15
2023-05-21T22:22:48.456Z,9.75
2023-05-21T22:25:18.462Z,9.38
2023-05-21T22:27:47.020Z,8.63
2023-05-21T22:30:15.629Z,8.50
2023-05-21T22:32:44.221Z,8.85
2023-05-21T22:35:13.522Z,8.82
2023-05-21T22:37:42.098Z,12.32
2023-05-21T22:40:11.414Z,11.07
2023-05-21T22:42:41.635Z,10.45
2023-05-21T22:45:11.113Z,12.23
2023-05-21T22:47:39.801Z,10.15
2023-05-21T22:50:10.179Z,11.27
2023-05-21T22:52:39.276Z,10.40
2023-05-21T22:55:11.346Z,11.07
2023-05-21T22:57:42.631Z,12.88
2023-05-21T23:00:12.177Z,11.20
2023-05-21T23:02:40.823Z,11.60
2023-05-21T23:05:10.233Z,13.05
2023-05-21T23:07:38.790Z,11.88
2023-05-21T23:10:08.158Z,11.30
2023-05-21T23:12:37.932Z,10.98
2023-05-21T23:15:10.127Z,10.63
2023-05-21T23:17:39.040Z,12.32
2023-05-21T23:20:09.305Z,12.48
2023-05-21T23:22:37.897Z,11.20
2023-05-21T23:25:07.364Z,11.20
2023-05-21T23:27:35.866Z,11.48
2023-05-21T23:30:04.628Z,12.90
2023-05-21T23:32:34.605Z,11.07
2023-05-21T23:35:03.185Z,12.23
2023-05-21T23:37:31.686Z,11.27
2023-05-21T23:40:00.242Z,9.88
2023-05-21T23:42:28.765Z,11.07
2023-05-21T23:44:57.281Z,12.65
2023-05-21T23:47:25.940Z,11.70
2023-05-21T23:49:55.811Z,9.57
2023-05-21T23:52:24.524Z,11.75
2023-05-21T23:54:53.063Z,10.43
2023-05-21T23:57:21.605Z,12.10
2023-05-21T23:59:50.130Z,10.52
